• Join FlightAware (Why Join?)
  • Login
  • US Flag 
12:33PM EST


 

Airport Tracker/Info


-or-


 

Live Flight TrackerFlight Track Log ✈ IBE6586 ✈ 12-May-2013 ✈ SKBO / BOG - LEMD / MAD

Flight Track Log - Related Links

Times and Time Zones

All times are in EDT time to prevent confusion due to time zone crossing. See the IBE6586 flight status page for this flight to view local times or setup timezone preferences in your user account.

Time Position Orientation Groundspeed Altitude Reporting Facility
EDT Latitude Longitude Course Direction KTS MPH feet Rate Location/Type
07:12PM 9.1480 -69.5759 48° Northeast  Level FlightAware Approximate
07:13PM 9.2404 -69.4721 48° Northeast  Level FlightAware Approximate
07:14PM 9.3328 -69.3682 48° Northeast  Level FlightAware Approximate
07:15PM 9.4252 -69.2642 48° Northeast  Level FlightAware Approximate
07:16PM 9.5175 -69.1602 48° Northeast  Level FlightAware Approximate
07:17PM 9.6098 -69.0561 48° Northeast  Level FlightAware Approximate
07:18PM 9.7021 -68.9520 48° Northeast  Level FlightAware Approximate
07:19PM 9.7943 -68.8478 48° Northeast  Level FlightAware Approximate
07:20PM 9.8866 -68.7436 48° Northeast  Level FlightAware Approximate
07:21PM 9.9788 -68.6393 48° Northeast  Level FlightAware Approximate
07:22PM 10.0709 -68.5349 48° Northeast  Level FlightAware Approximate
07:23PM 10.1630 -68.4305 48° Northeast  Level FlightAware Approximate
07:24PM 10.2551 -68.3260 48° Northeast  Level FlightAware Approximate
07:25PM 10.3472 -68.2215 48° Northeast  Level FlightAware Approximate
07:26PM 10.4392 -68.1169 48° Northeast  Level FlightAware Approximate
07:27PM 10.4866 -67.9938 87° East  Level FlightAware Approximate
07:28PM 10.4927 -67.8535 87° East  Level FlightAware Approximate
07:29PM 10.4987 -67.7133 87° East  Level FlightAware Approximate
07:30PM 10.5048 -67.5730 87° East  Level FlightAware Approximate
07:31PM 10.5107 -67.4328 88° East  Level FlightAware Approximate
07:32PM 10.5166 -67.2925 88° East  Level FlightAware Approximate
07:33PM 10.5224 -67.1523 88° East  Level FlightAware Approximate
07:34PM 10.5282 -67.0120 88° East  Level FlightAware Approximate
07:35PM 10.5339 -66.8717 88° East  Level FlightAware Approximate
07:36PM 10.5395 -66.7314 88° East  Level FlightAware Approximate
07:37PM 10.5451 -66.5911 88° East  Level FlightAware Approximate
07:38PM 10.5506 -66.4509 88° East  Level FlightAware Approximate
07:39PM 10.5561 -66.3105 88° East  Level FlightAware Approximate
07:40PM 10.5615 -66.1702 88° East  Level FlightAware Approximate
07:41PM 10.5679 -66.0302 68° East  Level FlightAware Approximate
07:42PM 10.6197 -65.9000 68° East  Level FlightAware Approximate
07:43PM 10.6714 -65.7698 68° East  Level FlightAware Approximate
07:44PM 10.7230 -65.6395 68° East  Level FlightAware Approximate
07:45PM 10.7746 -65.5092 68° East  Level FlightAware Approximate
07:46PM 10.8262 -65.3789 68° East  Level FlightAware Approximate
07:47PM 10.8777 -65.2485 68° East  Level FlightAware Approximate
07:48PM 10.9291 -65.1180 68° East  Level FlightAware Approximate
07:49PM 10.9805 -64.9875 68° East  Level FlightAware Approximate
07:50PM 11.0318 -64.8570 68° East  Level FlightAware Approximate
07:51PM 11.0831 -64.7264 68° East  Level FlightAware Approximate
07:52PM 11.1343 -64.5958 68° East  Level FlightAware Approximate
07:53PM 11.1855 -64.4651 68° East  Level FlightAware Approximate
07:54PM 11.2366 -64.3344 68° East  Level FlightAware Approximate
07:55PM 11.2876 -64.2037 68° East  Level FlightAware Approximate
07:56PM 11.3386 -64.0728 68° East  Level FlightAware Approximate
07:57PM 11.3895 -63.9420 68° East  Level FlightAware Approximate
07:58PM 11.4404 -63.8111 68° East  Level FlightAware Approximate
07:59PM 11.4912 -63.6801 68° East  Level FlightAware Approximate
08:00PM 11.5419 -63.5491 68° East  Level FlightAware Approximate
08:01PM 11.5926 -63.4181 68° East  Level FlightAware Approximate
08:02PM 11.6433 -63.2870 68° East  Level FlightAware Approximate
08:03PM 11.6938 -63.1558 68° East  Level FlightAware Approximate
08:04PM 11.7444 -63.0247 69° East  Level FlightAware Approximate
08:05PM 11.7946 -62.8933 69° East  Level FlightAware Approximate
08:06PM 11.8447 -62.7619 69° East  Level FlightAware Approximate
08:07PM 11.8946 -62.6304 69° East  Level FlightAware Approximate
08:08PM 11.9445 -62.4989 69° East  Level FlightAware Approximate
08:09PM 11.9944 -62.3673 69° East  Level FlightAware Approximate
08:10PM 12.0442 -62.2357 69° East  Level FlightAware Approximate
08:11PM 12.0939 -62.1040 69° East  Level FlightAware Approximate
08:12PM 12.1436 -61.9723 69° East  Level FlightAware Approximate
08:13PM 12.1932 -61.8406 69° East  Level FlightAware Approximate
08:14PM 12.2427 -61.7087 69° East  Level FlightAware Approximate
08:15PM 12.2922 -61.5769 69° East  Level FlightAware Approximate
08:16PM 12.3416 -61.4450 69° East  Level FlightAware Approximate
08:17PM 12.3910 -61.3130 69° East  Level FlightAware Approximate
08:18PM 12.4403 -61.1810 69° East  Level FlightAware Approximate
08:19PM 12.4895 -61.0489 69° East  Level FlightAware Approximate
08:20PM 12.5387 -60.9168 69° East  Level FlightAware Approximate
08:21PM 12.5878 -60.7846 69° East  Level FlightAware Approximate
08:22PM 12.6368 -60.6524 69° East  Level FlightAware Approximate
08:23PM 12.6858 -60.5201 69° East  Level FlightAware Approximate
08:24PM 12.7347 -60.3878 69° East  Level FlightAware Approximate
08:25PM 12.7835 -60.2554 69° East  Level FlightAware Approximate
08:26PM 12.8323 -60.1230 69° East  Level FlightAware Approximate
08:27PM 12.8810 -59.9905 69° East  Level FlightAware Approximate
08:28PM 12.9296 -59.8580 69° East  Level FlightAware Approximate
08:29PM 12.9782 -59.7254 69° East  Level FlightAware Approximate
08:30PM 13.0267 -59.5928 69° East  Level FlightAware Approximate
08:31PM 13.0819 -59.4641 51° Northeast  Level FlightAware Approximate
08:32PM 13.1690 -59.3542 51° Northeast  Level FlightAware Approximate
08:33PM 13.2560 -59.2441 51° Northeast  Level FlightAware Approximate
08:34PM 13.3430 -59.1340 51° Northeast  Level FlightAware Approximate
08:34PM 12.5420 -60.6340 51° Northeast 524 603 36,000  Level FlightAware
08:34PM 12.5840 -60.5440 64° Northeast 525 604 36,000  Level FlightAware
08:35PM 12.6310 -60.4430 64° Northeast 526 605 36,000  Level FlightAware
08:36PM 12.6780 -60.3410 65° Northeast 526 605 36,000  Level FlightAware
08:36PM 12.7210 -60.2500 64° Northeast 527 606 36,000  Level FlightAware
08:37PM 12.7650 -60.1540 65° Northeast 527 606 36,000  Level FlightAware
08:38PM 12.8020 -60.0760 64° Northeast 527 606 36,000  Level FlightAware
08:39PM 12.8600 -59.9510 65° Northeast 526 605 36,000  Level FlightAware
08:40PM 12.9090 -59.8450 65° Northeast 525 604 36,000  Level FlightAware
08:40PM 12.9450 -59.7690 64° Northeast 525 604 36,000  Level FlightAware
08:41PM 13.0090 -59.6260 65° Northeast 528 608 36,000  Level FlightAware
08:42PM 13.0560 -59.5270 64° Northeast 528 608 36,000  Level FlightAware
08:43PM 13.1130 -59.4360 57° Northeast 525 604 36,000  Level FlightAware
08:43PM 13.1600 -59.3760 51° Northeast 523 602 36,000  Level FlightAware
08:44PM 13.2220 -59.3000 50° Northeast 523 602 36,000  Level FlightAware
08:45PM 13.2750 -59.2350 50° Northeast 523 602 36,000  Level FlightAware
08:45PM 13.3270 -59.1700 51° Northeast 523 602 36,000  Level FlightAware
08:46PM 13.3800 -59.1050 50° Northeast 523 602 36,000  Level FlightAware
08:47PM 13.4460 -59.0240 50° Northeast 523 602 36,000  Level FlightAware
08:48PM 13.5630 -58.8650 53° Northeast 527 606 36,000  Level FlightAware
08:48PM 13.6230 -58.7880 51° Northeast 527 606 36,000  Level FlightAware
08:49PM 13.6880 -58.7050 51° Northeast 529 609 36,000  Level FlightAware
08:50PM 13.7880 -58.5780 51° Northeast 528 608 36,000  Level FlightAware
08:51PM 13.8730 -58.4680 51° Northeast 530 610 36,000  Level FlightAware
08:52PM 13.9260 -58.4010 51° Northeast 529 609 36,000  Level FlightAware
08:53PM 14.0170 -58.2850 51° Northeast 530 610 36,000  Level FlightAware
08:53PM 14.0810 -58.2020 52° Northeast 530 610 36,000  Level FlightAware
08:54PM 14.1490 -58.1150 51° Northeast 530 610 36,000  Level FlightAware
08:55PM 14.2050 -58.0430 51° Northeast 532 612 36,000  Level FlightAware
08:55PM 14.2610 -57.9710 51° Northeast 534 615 36,000  Level FlightAware
08:56PM 14.3430 -57.8660 51° Northeast 535 616 36,000  Level FlightAware
08:57PM 14.4370 -57.7450 51° Northeast 535 616 36,000  Level FlightAware
08:58PM 14.5030 -57.6590 52° Northeast 535 616 36,000  Level FlightAware
08:58PM 14.5560 -57.5910 51° Northeast 535 616 36,000  Level FlightAware
08:59PM 14.6290 -57.4960 52° Northeast 536 617 36,000  Level FlightAware
09:00PM 14.7090 -57.3930 51° Northeast 536 617 36,000  Level FlightAware
09:01PM 14.7620 -57.3250 51° Northeast 536 617 36,000  Level FlightAware
09:01PM 14.8150 -57.2580 51° Northeast 536 617 36,000  Level FlightAware
09:02PM 14.8690 -57.1900 51° Northeast 536 617 36,000  Level FlightAware
09:03PM 14.9220 -57.1220 51° Northeast 536 617 36,000  Level FlightAware
09:03PM 14.9750 -57.0540 51° Northeast 536 617 36,000  Level FlightAware
09:04PM 15.0410 -56.9690 51° Northeast 536 617 36,000  Level FlightAware
09:05PM 15.0940 -56.9010 51° Northeast 536 617 36,000  Level FlightAware
09:06PM 15.1470 -56.8340 51° Northeast 536 617 36,000  Level FlightAware
09:06PM 15.2000 -56.7660 51° Northeast 536 617 36,000  Level FlightAware
09:07PM 15.2530 -56.6980 51° Northeast 536 617 36,000  Level FlightAware
09:08PM 15.3200 -56.6130 51° Northeast 536 617 36,000  Level FlightAware
09:08PM 15.3730 -56.5450 51° Northeast 536 617 36,000  Level FlightAware
09:09PM 15.4260 -56.4770 51° Northeast 536 617 36,000  Level FlightAware
09:12PM 15.6359 -56.1997 52° Northeast  Level FlightAware Approximate
09:13PM 15.7209 -56.0871 52° Northeast  Level FlightAware Approximate
09:14PM 15.8059 -55.9744 52° Northeast  Level FlightAware Approximate
09:15PM 15.8908 -55.8616 52° Northeast  Level FlightAware Approximate
09:16PM 15.9756 -55.7487 52° Northeast  Level FlightAware Approximate
09:17PM 16.0604 -55.6358 52° Northeast  Level FlightAware Approximate
09:18PM 16.1451 -55.5227 52° Northeast  Level FlightAware Approximate
09:19PM 16.2297 -55.4095 52° Northeast  Level FlightAware Approximate
09:20PM 16.3143 -55.2963 52° Northeast  Level FlightAware Approximate
09:21PM 16.3988 -55.1829 52° Northeast  Level FlightAware Approximate
09:22PM 16.4833 -55.0695 52° Northeast  Level FlightAware Approximate
09:23PM 16.5677 -54.9559 52° Northeast  Level FlightAware Approximate
09:24PM 16.6521 -54.8422 52° Northeast  Level FlightAware Approximate
09:25PM 16.7364 -54.7285 52° Northeast  Level FlightAware Approximate
09:26PM 16.8206 -54.6146 52° Northeast  Level FlightAware Approximate
09:27PM 16.9048 -54.5006 52° Northeast  Level FlightAware Approximate
09:28PM 16.9888 -54.3866 52° Northeast  Level FlightAware Approximate
09:29PM 17.0729 -54.2724 52° Northeast  Level FlightAware Approximate
09:30PM 17.1569 -54.1582 52° Northeast  Level FlightAware Approximate
09:31PM 17.2408 -54.0438 52° Northeast  Level FlightAware Approximate
09:32PM 17.3246 -53.9293 52° Northeast  Level FlightAware Approximate
09:33PM 17.4084 -53.8147 53° Northeast  Level FlightAware Approximate
09:34PM 17.4921 -53.7001 53° Northeast  Level FlightAware Approximate
09:35PM 17.5758 -53.5853 53° Northeast  Level FlightAware Approximate
09:35PM 18.0000 -53.0000 54° Northeast 555 639 36,000  Level New York Oceanic (ODAPS)
09:36PM 17.6593 -53.4704 53° Northeast  Level FlightAware Approximate
09:37PM 17.7428 -53.3554 53° Northeast  Level FlightAware Approximate
09:38PM 17.8263 -53.2403 53° Northeast  Level FlightAware Approximate
09:39PM 17.9097 -53.1250 53° Northeast  Level FlightAware Approximate
09:40PM 17.9930 -53.0097 53° Northeast  Level FlightAware Approximate
09:41PM 18.5264 -52.2243 55° Northeast 555 639 36,000  Level FlightAware Transoceanic
09:42PM 18.6138 -52.0945 55° Northeast 555 639 36,000  Level FlightAware Transoceanic
09:43PM 18.7011 -51.9647 55° Northeast 555 639 36,000  Level FlightAware Transoceanic
09:44PM 18.7883 -51.8346 55° Northeast 555 639 36,000  Level FlightAware Transoceanic
09:45PM 18.8755 -51.7045 55° Northeast 555 639 36,000  Level FlightAware Transoceanic
09:46PM 18.9625 -51.5742 55° Northeast 555 639 36,000  Level FlightAware Transoceanic
09:46PM 18.9500 -51.6000 55° Northeast 550 633 36,000  Level New York Oceanic (ODAPS)
09:47PM 19.0495 -51.4438 55° Northeast 555 639 36,000  Level FlightAware Transoceanic
09:48PM 19.1364 -51.3132 55° Northeast 555 639 36,000  Level FlightAware Transoceanic
09:49PM 19.2232 -51.1825 55° Northeast 555 639 36,000  Level FlightAware Transoceanic
09:50PM 19.3099 -51.0517 55° Northeast 555 639 36,000  Level FlightAware Transoceanic
09:51PM 19.3965 -50.9207 55° Northeast 555 639 36,000  Level FlightAware Transoceanic
09:52PM 19.4768 -50.8026 55° Northeast 550 633 36,000  Level FlightAware Transoceanic
09:53PM 19.5642 -50.6692 55° Northeast 550 633 36,000  Level FlightAware Transoceanic
09:54PM 19.6516 -50.5356 55° Northeast 550 633 36,000  Level FlightAware Transoceanic
09:55PM 19.7388 -50.4020 55° Northeast 550 633 36,000  Level FlightAware Transoceanic
09:56PM 19.8260 -50.2681 55° Northeast 550 633 36,000  Level FlightAware Transoceanic
09:57PM 19.9130 -50.1341 55° Northeast 550 633 36,000  Level FlightAware Transoceanic
09:58PM 20.0000 -50.0000 51° Northeast 550 633 36,000  Level FlightAware Transoceanic
09:58PM 20.0000 -50.0000 51° Northeast 529 609 36,000  Level New York Oceanic (ODAPS)
09:59PM 20.0947 -49.8766 51° Northeast 550 633 36,000  Level FlightAware Transoceanic
10:00PM 20.1894 -49.7530 51° Northeast 550 633 36,000  Level FlightAware Transoceanic
10:01PM 20.2839 -49.6293 51° Northeast 550 633 36,000  Level FlightAware Transoceanic
10:02PM 20.3784 -49.5054 51° Northeast 550 633 36,000  Level FlightAware Transoceanic
10:03PM 20.4727 -49.3814 51° Northeast 550 633 36,000  Level FlightAware Transoceanic
10:04PM 20.5598 -49.2668 51° Northeast 529 609 36,000  Level FlightAware Transoceanic
10:05PM 20.6528 -49.1440 51° Northeast 529 609 36,000  Level FlightAware Transoceanic
10:06PM 20.7457 -49.0212 51° Northeast 529 609 36,000  Level FlightAware Transoceanic
10:06PM 20.8000 -48.9333 51° Northeast 526 605 36,000  Level New York Oceanic (ODAPS)
10:07PM 20.8385 -48.8982 51° Northeast 529 609 36,000  Level FlightAware Transoceanic
10:08PM 20.9313 -48.7750 51° Northeast 529 609 36,000  Level FlightAware Transoceanic
10:09PM 21.0239 -48.6516 51° Northeast 529 609 36,000  Level FlightAware Transoceanic
10:10PM 21.1165 -48.5282 51° Northeast 529 609 36,000  Level FlightAware Transoceanic
10:11PM 21.2090 -48.4045 51° Northeast 529 609 36,000  Level FlightAware Transoceanic
10:12PM 21.3506 -48.1999 51° Northeast 526 605 36,000  Level FlightAware Transoceanic
10:13PM 21.4421 -48.0771 51° Northeast 526 605 36,000  Level FlightAware Transoceanic
10:14PM 21.5334 -47.9542 51° Northeast 526 605 36,000  Level FlightAware Transoceanic
10:15PM 21.6247 -47.8311 51° Northeast 526 605 36,000  Level FlightAware Transoceanic
10:16PM 21.7159 -47.7078 51° Northeast 526 605 36,000  Level FlightAware Transoceanic
10:17PM 21.8070 -47.5844 52° Northeast 526 605 36,000  Level FlightAware Transoceanic
10:18PM 21.8980 -47.4609 52° Northeast 526 605 36,000  Level FlightAware Transoceanic
10:19PM 21.9889 -47.3372 52° Northeast 526 605 36,000  Level FlightAware Transoceanic
10:20PM 22.0798 -47.2133 52° Northeast 526 605 36,000  Level FlightAware Transoceanic
10:21PM 22.1705 -47.0893 52° Northeast 526 605 36,000  Level FlightAware Transoceanic
10:22PM 22.2611 -46.9651 52° Northeast 526 605 36,000  Level FlightAware Transoceanic
10:23PM 22.3517 -46.8408 52° Northeast 526 605 36,000  Level FlightAware Transoceanic
10:24PM 22.4421 -46.7162 52° Northeast 526 605 36,000  Level FlightAware Transoceanic
10:25PM 22.5324 -46.5916 52° Northeast 526 605 36,000  Level FlightAware Transoceanic
10:26PM 22.6227 -46.4667 52° Northeast 526 605 36,000  Level FlightAware Transoceanic
10:26PM 22.7667 -46.2833 52° Northeast 543 625 36,000  Level New York Oceanic (ODAPS)
10:27PM 22.7129 -46.3417 52° Northeast 526 605 36,000  Level FlightAware Transoceanic
10:28PM 22.8029 -46.2166 52° Northeast 526 605 36,000  Level FlightAware Transoceanic
10:29PM 22.8929 -46.0912 52° Northeast 526 605 36,000  Level FlightAware Transoceanic
10:30PM 22.9827 -45.9657 52° Northeast 526 605 36,000  Level FlightAware Transoceanic
10:31PM 23.0725 -45.8401 52° Northeast 526 605 36,000  Level FlightAware Transoceanic
10:32PM 23.1622 -45.7142 52° Northeast 526 605 36,000  Level FlightAware Transoceanic
10:33PM 23.3213 -45.5046 52° Northeast 543 625 36,000  Level FlightAware Transoceanic
10:34PM 23.4133 -45.3742 52° Northeast 543 625 36,000  Level FlightAware Transoceanic
10:35PM 23.5053 -45.2436 53° Northeast 543 625 36,000  Level FlightAware Transoceanic
10:36PM 23.5971 -45.1128 53° Northeast 543 625 36,000  Level FlightAware Transoceanic
10:37PM 23.6889 -44.9819 53° Northeast 543 625 36,000  Level FlightAware Transoceanic
10:38PM 23.7805 -44.8507 53° Northeast 543 625 36,000  Level FlightAware Transoceanic
10:39PM 23.8720 -44.7194 53° Northeast 543 625 36,000  Level FlightAware Transoceanic
10:40PM 23.9634 -44.5879 53° Northeast 543 625 36,000  Level FlightAware Transoceanic
10:41PM 24.0547 -44.4562 53° Northeast 543 625 36,000  Level FlightAware Transoceanic
10:42PM 24.1459 -44.3243 53° Northeast 543 625 36,000  Level FlightAware Transoceanic
10:43PM 24.2369 -44.1922 53° Northeast 543 625 36,000  Level FlightAware Transoceanic
10:44PM 24.3279 -44.0600 53° Northeast 543 625 36,000  Level FlightAware Transoceanic
10:45PM 24.4187 -43.9275 53° Northeast 543 625 36,000  Level FlightAware Transoceanic
10:46PM 24.5094 -43.7949 53° Northeast 543 625 36,000  Level FlightAware Transoceanic
10:46PM 24.6667 -43.5667 53° Northeast 532 612 36,000  Level New York Oceanic (ODAPS)
10:47PM 24.6000 -43.6620 53° Northeast 543 625 36,000  Level FlightAware Transoceanic
10:48PM 24.6905 -43.5290 53° Northeast 543 625 36,000  Level FlightAware Transoceanic
10:49PM 24.7809 -43.3958 53° Northeast 543 625 36,000  Level FlightAware Transoceanic
10:50PM 24.8711 -43.2624 53° Northeast 543 625 36,000  Level FlightAware Transoceanic
10:51PM 24.9613 -43.1287 53° Northeast 543 625 36,000  Level FlightAware Transoceanic
10:52PM 25.0513 -42.9949 53° Northeast 543 625 36,000  Level FlightAware Transoceanic
10:53PM 25.1926 -42.7861 54° Northeast 532 612 36,000  Level FlightAware Transoceanic
10:54PM 25.2799 -42.6554 54° Northeast 532 612 36,000  Level FlightAware Transoceanic
10:55PM 25.3670 -42.5244 54° Northeast 532 612 36,000  Level FlightAware Transoceanic
10:56PM 25.4541 -42.3933 54° Northeast 532 612 36,000  Level FlightAware Transoceanic
10:57PM 25.5410 -42.2620 54° Northeast 532 612 36,000  Level FlightAware Transoceanic
10:58PM 25.6278 -42.1305 54° Northeast 532 612 36,000  Level FlightAware Transoceanic
10:59PM 25.7144 -41.9988 54° Northeast 532 612 36,000  Level FlightAware Transoceanic
11:00PM 25.8010 -41.8669 54° Northeast 532 612 36,000  Level FlightAware Transoceanic
11:01PM 25.8874 -41.7349 54° Northeast 532 612 36,000  Level FlightAware Transoceanic
11:02PM 25.9737 -41.6026 54° Northeast 532 612 36,000  Level FlightAware Transoceanic
11:03PM 26.0599 -41.4701 54° Northeast 532 612 36,000  Level FlightAware Transoceanic
11:04PM 26.1460 -41.3375 54° Northeast 532 612 36,000  Level FlightAware Transoceanic
11:05PM 26.2320 -41.2046 54° Northeast 532 612 36,000  Level FlightAware Transoceanic
11:06PM 26.3178 -41.0716 54° Northeast 532 612 36,000  Level FlightAware Transoceanic
11:07PM 26.4035 -40.9383 54° Northeast 532 612 36,000  Level FlightAware Transoceanic
11:07PM 26.4333 -40.8833 54° Northeast 527 606 36,000  Level New York Oceanic (ODAPS)
11:08PM 26.4891 -40.8049 54° Northeast 532 612 36,000  Level FlightAware Transoceanic
11:09PM 26.5746 -40.6712 54° Northeast 532 612 36,000  Level FlightAware Transoceanic
11:10PM 26.6599 -40.5374 55° Northeast 532 612 36,000  Level FlightAware Transoceanic
11:11PM 26.7451 -40.4033 55° Northeast 532 612 36,000  Level FlightAware Transoceanic
11:12PM 26.8302 -40.2691 55° Northeast 532 612 36,000  Level FlightAware Transoceanic
11:13PM 26.9194 -40.1267 54° Northeast 527 606 36,000  Level FlightAware Transoceanic
11:14PM 27.0000 -40.0000 53° Northeast 527 606 36,000  Level FlightAware Transoceanic
11:15PM 27.0858 -39.8726 53° Northeast 527 606 36,000  Level FlightAware Transoceanic
11:16PM 27.1716 -39.7451 53° Northeast 527 606 36,000  Level FlightAware Transoceanic
11:17PM 27.2572 -39.6173 53° Northeast 527 606 36,000  Level FlightAware Transoceanic
11:18PM 27.3427 -39.4894 53° Northeast 527 606 36,000  Level FlightAware Transoceanic
11:19PM 27.4280 -39.3612 53° Northeast 527 606 36,000  Level FlightAware Transoceanic
11:20PM 27.5133 -39.2329 53° Northeast 527 606 36,000  Level FlightAware Transoceanic
11:21PM 27.5984 -39.1043 53° Northeast 527 606 36,000  Level FlightAware Transoceanic
11:22PM 27.6834 -38.9756 53° Northeast 527 606 36,000  Level FlightAware Transoceanic
11:23PM 27.7683 -38.8466 53° Northeast 527 606 36,000  Level FlightAware Transoceanic
11:24PM 27.8531 -38.7175 53° Northeast 527 606 36,000  Level FlightAware Transoceanic
11:25PM 27.9378 -38.5881 54° Northeast 527 606 36,000  Level FlightAware Transoceanic
11:26PM 28.0223 -38.4586 54° Northeast 527 606 36,000  Level FlightAware Transoceanic
11:27PM 28.1067 -38.3288 54° Northeast 527 606 36,000  Level FlightAware Transoceanic
11:28PM 28.1910 -38.1988 54° Northeast 527 606 36,000  Level FlightAware Transoceanic
11:29PM 28.2752 -38.0687 54° Northeast 527 606 36,000  Level FlightAware Transoceanic
11:30PM 28.3592 -37.9383 54° Northeast 527 606 36,000  Level FlightAware Transoceanic
11:31PM 28.4432 -37.8077 54° Northeast 527 606 36,000  Level FlightAware Transoceanic
11:32PM 28.5270 -37.6769 54° Northeast 527 606 36,000  Level FlightAware Transoceanic
11:33PM 28.6106 -37.5460 54° Northeast 527 606 36,000  Level FlightAware Transoceanic
11:34PM 28.6942 -37.4148 54° Northeast 527 606 36,000  Level FlightAware Transoceanic
11:35PM 28.7776 -37.2833 54° Northeast 527 606 36,000  Level FlightAware Transoceanic
11:36PM 28.8609 -37.1517 54° Northeast 527 606 36,000  Level FlightAware Transoceanic
11:37PM 28.9441 -37.0199 54° Northeast 527 606 36,000  Level FlightAware Transoceanic
11:38PM 29.0271 -36.8879 54° Northeast 527 606 36,000  Level FlightAware Transoceanic
11:39PM 29.1100 -36.7556 54° Northeast 527 606 36,000  Level FlightAware Transoceanic
11:40PM 29.1928 -36.6231 54° Northeast 527 606 36,000  Level FlightAware Transoceanic
11:41PM 29.2754 -36.4904 55° Northeast 527 606 36,000  Level FlightAware Transoceanic
11:42PM 29.3580 -36.3575 55° Northeast 527 606 36,000  Level FlightAware Transoceanic
11:43PM 29.4403 -36.2244 55° Northeast 527 606 36,000  Level FlightAware Transoceanic
11:44PM 29.5226 -36.0911 55° Northeast 527 606 36,000  Level FlightAware Transoceanic
11:45PM 29.6047 -35.9576 55° Northeast 527 606 36,000  Level FlightAware Transoceanic
11:46PM 29.6867 -35.8238 55° Northeast 527 606 36,000  Level FlightAware Transoceanic
11:47PM 29.7686 -35.6898 55° Northeast 527 606 36,000  Level FlightAware Transoceanic
11:48PM 29.8503 -35.5556 55° Northeast 527 606 36,000  Level FlightAware Transoceanic
11:49PM 29.9319 -35.4212 55° Northeast 527 606 36,000  Level FlightAware Transoceanic
11:50PM 30.0133 -35.2865 55° Northeast 527 606 36,000  Level FlightAware Transoceanic
11:51PM 30.0946 -35.1517 55° Northeast 527 606 36,000  Level FlightAware Transoceanic
11:52PM 30.1758 -35.0166 55° Northeast 527 606 36,000  Level FlightAware Transoceanic
11:53PM 30.2568 -34.8813 55° Northeast 527 606 36,000  Level FlightAware Transoceanic
11:54PM 30.3377 -34.7458 55° Northeast 527 606 36,000  Level FlightAware Transoceanic
11:55PM 30.4184 -34.6100 55° Northeast 527 606 36,000  Level FlightAware Transoceanic
11:56PM 30.4990 -34.4740 56° Northeast 527 606 36,000  Level FlightAware Transoceanic
11:57PM 30.5795 -34.3378 56° Northeast 527 606 36,000  Level FlightAware Transoceanic
11:58PM 30.6598 -34.2014 56° Northeast 527 606 36,000  Level FlightAware Transoceanic
11:59PM 30.7400 -34.0647 56° Northeast 527 606 36,000  Level FlightAware Transoceanic
12:00AM 30.8200 -33.9278 56° Northeast 527 606 36,000  Level FlightAware Transoceanic
12:01AM 30.8999 -33.7907 56° Northeast 527 606 36,000  Level FlightAware Transoceanic
12:02AM 30.9797 -33.6534 56° Northeast 527 606 36,000  Level FlightAware Transoceanic
12:03AM 31.0593 -33.5158 56° Northeast 527 606 36,000  Level FlightAware Transoceanic
12:04AM 31.1388 -33.3780 56° Northeast 527 606 36,000  Level FlightAware Transoceanic
12:05AM 31.2181 -33.2400 56° Northeast 527 606 36,000  Level FlightAware Transoceanic
12:06AM 31.2972 -33.1017 56° Northeast 527 606 36,000  Level FlightAware Transoceanic
12:07AM 31.3762 -32.9632 56° Northeast 527 606 36,000  Level FlightAware Transoceanic
12:08AM 31.4551 -32.8245 56° Northeast 527 606 36,000  Level FlightAware Transoceanic
12:09AM 31.5338 -32.6855 56° Northeast 527 606 36,000  Level FlightAware Transoceanic
12:10AM 31.6124 -32.5463 57° Northeast 527 606 36,000  Level FlightAware Transoceanic
12:11AM 31.6908 -32.4069 57° Northeast 527 606 36,000  Level FlightAware Transoceanic
12:12AM 31.7691 -32.2672 57° Northeast 527 606 36,000  Level FlightAware Transoceanic
12:13AM 31.8472 -32.1273 57° Northeast 527 606 36,000  Level FlightAware Transoceanic
12:14AM 31.9251 -31.9872 57° Northeast 527 606 36,000  Level FlightAware Transoceanic
12:15AM 32.0029 -31.8468 57° Northeast 527 606 36,000  Level FlightAware Transoceanic
12:16AM 32.0806 -31.7062 57° Northeast 527 606 36,000  Level FlightAware Transoceanic
12:17AM 32.1581 -31.5653 57° Northeast 527 606 36,000  Level FlightAware Transoceanic
12:18AM 32.2354 -31.4243 57° Northeast 527 606 36,000  Level FlightAware Transoceanic
12:19AM 32.3126 -31.2829 57° Northeast 527 606 36,000  Level FlightAware Transoceanic
12:20AM 32.3896 -31.1413 57° Northeast 527 606 36,000  Level FlightAware Transoceanic
12:21AM 32.4665 -30.9995 57° Northeast 527 606 36,000  Level FlightAware Transoceanic
12:22AM 32.5432 -30.8575 57° Northeast 527 606 36,000  Level FlightAware Transoceanic
12:23AM 32.6197 -30.7152 57° Northeast 527 606 36,000  Level FlightAware Transoceanic
12:24AM 32.6961 -30.5726 58° Northeast 527 606 36,000  Level FlightAware Transoceanic
12:25AM 32.7723 -30.4298 58° Northeast 527 606 36,000  Level FlightAware Transoceanic
12:26AM 32.8484 -30.2868 58° Northeast 527 606 36,000  Level FlightAware Transoceanic
12:27AM 32.9243 -30.1435 58° Northeast 527 606 36,000  Level FlightAware Transoceanic
12:28AM 32.9976 -30.0045 58° Northeast  Level FlightAware Approximate
12:29AM 33.0708 -29.8653 58° Northeast  Level FlightAware Approximate
12:30AM 33.0620 -29.8654 61° Northeast  Level FlightAware Approximate
12:31AM 33.1283 -29.7212 61° Northeast  Level FlightAware Approximate
12:32AM 33.1943 -29.5768 61° Northeast  Level FlightAware Approximate
12:33AM 33.2602 -29.4322 61° Northeast  Level FlightAware Approximate
12:34AM 33.3259 -29.2873 61° Northeast  Level FlightAware Approximate
12:35AM 33.3914 -29.1423 62° Northeast  Level FlightAware Approximate
12:36AM 33.4568 -28.9970 62° Northeast  Level FlightAware Approximate
12:37AM 33.5220 -28.8515 62° Northeast  Level FlightAware Approximate
12:38AM 33.5870 -28.7057 62° Northeast  Level FlightAware Approximate
12:39AM 33.6519 -28.5598 62° Northeast  Level FlightAware Approximate
12:40AM 33.7166 -28.4136 62° Northeast  Level FlightAware Approximate
12:41AM 33.7811 -28.2673 62° Northeast  Level FlightAware Approximate
12:42AM 33.8454 -28.1207 62° Northeast  Level FlightAware Approximate
12:43AM 33.9096 -27.9738 62° Northeast  Level FlightAware Approximate
12:44AM 33.9736 -27.8268 62° Northeast  Level FlightAware Approximate
12:45AM 34.0374 -27.6795 62° Northeast  Level FlightAware Approximate
12:46AM 34.1011 -27.5320 62° Northeast  Level FlightAware Approximate
12:47AM 34.1645 -27.3843 63° Northeast  Level FlightAware Approximate
12:48AM 34.2278 -27.2364 63° Northeast  Level FlightAware Approximate
12:49AM 34.2909 -27.0882 63° Northeast  Level FlightAware Approximate
12:50AM 34.3539 -26.9399 63° Northeast  Level FlightAware Approximate
12:51AM 34.4166 -26.7913 63° Northeast  Level FlightAware Approximate
12:51AM 34.5880 -26.3370 63° Northeast 487 560 36,000  Level FlightAware
12:51AM 34.5820 -26.3530 246° West 36,000  Level FlightAware
12:52AM 34.4792 -26.6424 63° Northeast  Level FlightAware Approximate
12:52AM 34.6540 -26.1780 63° Northeast 486 559 36,000  Level FlightAware
12:53AM 34.6870 -26.0940 64° Northeast 486 559 36,000  Level FlightAware
12:54AM 34.7400 -25.9710 62° Northeast 489 563 36,000  Level FlightAware
12:55AM 34.8280 -25.7550 64° Northeast 483 556 36,000  Level FlightAware
12:56AM 34.8510 -25.7020 62° Northeast 486 559 36,000  Level FlightAware
12:59AM 35.0129 -25.3060 63° Northeast  Level FlightAware Approximate
12:59AM 35.0430 -25.2260 63° Northeast 481 554 36,000  Level FlightAware
01:02AM 35.2034 -24.8282 64° Northeast  Level FlightAware Approximate
01:03AM 35.2640 -24.6768 64° Northeast  Level FlightAware Approximate
01:04AM 35.3244 -24.5251 64° Northeast  Level FlightAware Approximate
01:05AM 35.3847 -24.3732 64° Northeast  Level FlightAware Approximate
01:05AM 35.3780 -24.3820 64° Northeast 477 549 36,000  Level FlightAware
01:06AM 35.4430 -24.2150 64° Northeast 477 549 36,000  Level FlightAware
01:07AM 35.4730 -24.1390 64° Northeast 479 551 36,000  Level FlightAware
01:07AM 35.5060 -24.0560 64° Northeast 479 551 36,000  Level FlightAware
01:08AM 35.5480 -23.9520 64° Northeast 479 551 36,000  Level FlightAware
01:09AM 35.5810 -23.8680 64° Northeast 479 551 36,000  Level FlightAware
01:09AM 35.6140 -23.7850 64° Northeast 479 551 36,000  Level FlightAware
01:10AM 35.6470 -23.7020 64° Northeast 479 551 36,000  Level FlightAware
01:11AM 35.6800 -23.6190 64° Northeast 479 551 36,000  Level FlightAware
01:12AM 35.7210 -23.5140 64° Northeast 479 551 36,000  Level FlightAware
01:12AM 35.7540 -23.4310 64° Northeast 479 551 36,000  Level FlightAware
01:13AM 35.7870 -23.3470 64° Northeast 479 551 36,000  Level FlightAware
01:14AM 35.8200 -23.2640 64° Northeast 479 551 36,000  Level FlightAware
01:14AM 35.8530 -23.1800 64° Northeast 479 551 36,000  Level FlightAware
01:15AM 35.8940 -23.0760 64° Northeast 479 551 36,000  Level FlightAware
01:16AM 35.9270 -22.9920 64° Northeast 479 551 36,000  Level FlightAware
01:18AM 36.0174 -22.7220 67° East  Level Estimated
01:19AM 36.0698 -22.5644 68° East  Level Estimated
01:19AM 36.1800 -22.2670 68° East 36,000  Level FlightAware
01:20AM 36.2180 -22.1660 65° Northeast 481 554 36,000  Level FlightAware
01:21AM 36.2550 -22.0610 66° East 36,000  Level FlightAware
01:22AM 36.3100 -21.9130 65° Northeast 483 556 36,000  Level FlightAware
01:22AM 36.3580 -21.7790 66° East 476 548 36,000  Level FlightAware
01:23AM 36.3960 -21.6740 66° East 476 548 36,000  Level FlightAware
01:24AM 36.4340 -21.5680 66° East 477 549 36,000  Level FlightAware
01:24AM 36.4630 -21.4880 66° East 479 551 36,000  Level FlightAware
01:25AM 36.5000 -21.3830 66° East 479 551 36,000  Level FlightAware
01:26AM 36.5350 -21.2860 66° East 476 548 36,000  Level FlightAware
01:27AM 36.5760 -21.1690 66° East 476 548 36,000  Level FlightAware
01:27AM 36.6060 -21.0840 66° East 476 548 36,000  Level FlightAware
01:28AM 36.6520 -20.9530 66° East 475 547 36,000  Level FlightAware
01:29AM 36.6880 -20.8530 66° East 475 547 36,000  Level FlightAware
01:30AM 36.7360 -20.7150 67° East 478 550 36,000  Level FlightAware
01:30AM 36.7670 -20.6290 66° East 478 550 36,000  Level FlightAware
01:31AM 36.8070 -20.5100 67° East 479 551 36,000  Level FlightAware
01:32AM 36.8380 -20.4240 66° East 479 551 36,000  Level FlightAware
01:32AM 36.8690 -20.3380 66° East 479 551 36,000  Level FlightAware
01:33AM 36.8990 -20.2520 66° East 479 551 36,000  Level FlightAware
01:34AM 36.9380 -20.1450 65° Northeast 479 551 36,000  Level FlightAware
01:34AM 37.0010 -19.9510 68° East 479 551 36,000  Level FlightAware
01:35AM 37.0410 -19.8550 62° Northeast 479 551 36,000  Level FlightAware
01:36AM 37.0850 -19.7600 60° Northeast 478 550 36,000  Level FlightAware
01:36AM 37.1220 -19.6770 61° Northeast 478 550 36,000  Level FlightAware
01:37AM 37.1670 -19.5740 61° Northeast 478 550 36,000  Level FlightAware
01:38AM 37.2040 -19.4910 61° Northeast 478 550 36,000  Level FlightAware
01:39AM 37.2400 -19.4090 61° Northeast 478 550 36,000  Level FlightAware
01:39AM 37.2760 -19.3260 61° Northeast 478 550 36,000  Level FlightAware
01:40AM 37.3130 -19.2430 61° Northeast 478 550 36,000  Level FlightAware
01:41AM 37.3580 -19.1400 61° Northeast 478 550 36,000  Level FlightAware
01:41AM 37.3950 -19.0570 61° Northeast 478 550 36,000  Level FlightAware
01:42AM 37.4310 -18.9750 61° Northeast 478 550 36,000  Level FlightAware
01:43AM 37.4680 -18.8920 61° Northeast 478 550 36,000  Level FlightAware
01:43AM 37.5040 -18.8090 61° Northeast 478 550 36,000  Level FlightAware
01:44AM 37.5500 -18.7050 61° Northeast 478 550 36,000  Level FlightAware
01:45AM 37.5860 -18.6220 61° Northeast 478 550 36,000 -60 Level FlightAware
01:48AM 37.7366 -18.2211 62° Northeast  Level FlightAware Approximate
01:49AM 37.8003 -18.0666 62° Northeast  Level FlightAware Approximate
01:50AM 37.8638 -17.9118 63° Northeast  Level FlightAware Approximate
01:51AM 37.9270 -17.7567 63° Northeast  Level FlightAware Approximate
01:52AM 37.9901 -17.6013 63° Northeast  Level FlightAware Approximate
01:53AM 38.0529 -17.4457 63° Northeast  Level FlightAware Approximate
01:54AM 38.1155 -17.2899 63° Northeast  Level FlightAware Approximate
01:55AM 38.1780 -17.1337 63° Northeast  Level FlightAware Approximate
01:56AM 38.2402 -16.9773 63° Northeast  Level FlightAware Approximate
01:57AM 38.3022 -16.8206 63° Northeast  Level FlightAware Approximate
01:58AM 38.3640 -16.6637 63° Northeast  Level FlightAware Approximate
01:59AM 38.4256 -16.5064 63° Northeast  Level FlightAware Approximate
02:00AM 38.4870 -16.3490 63° Northeast  Level FlightAware Approximate
02:01AM 38.5482 -16.1912 64° Northeast  Level FlightAware Approximate
02:02AM 38.6091 -16.0332 64° Northeast  Level FlightAware Approximate
02:03AM 38.6699 -15.8749 64° Northeast  Level FlightAware Approximate
02:04AM 38.7304 -15.7163 64° Northeast  Level FlightAware Approximate
02:05AM 38.7908 -15.5575 64° Northeast  Level FlightAware Approximate
02:06AM 38.8509 -15.3984 64° Northeast  Level FlightAware Approximate
02:07AM 38.9108 -15.2391 64° Northeast  Level FlightAware Approximate
02:08AM 38.9704 -15.0794 64° Northeast  Level FlightAware Approximate
02:09AM 39.0156 -14.9131 77° East  Level FlightAware Approximate
02:10AM 39.0465 -14.7403 77° East  Level FlightAware Approximate
02:11AM 39.0770 -14.5673 77° East  Level FlightAware Approximate
02:12AM 39.1074 -14.3942 77° East  Level FlightAware Approximate
02:13AM 39.1375 -14.2209 77° East  Level FlightAware Approximate
02:14AM 39.1673 -14.0475 77° East  Level FlightAware Approximate
02:15AM 39.1969 -13.8739 78° East  Level FlightAware Approximate
02:16AM 39.2262 -13.7002 78° East  Level FlightAware Approximate
02:17AM 39.2552 -13.5263 78° East  Level FlightAware Approximate
02:18AM 39.2840 -13.3523 78° East  Level FlightAware Approximate
02:19AM 39.3125 -13.1781 78° East  Level FlightAware Approximate
02:20AM 39.3408 -13.0038 78° East  Level FlightAware Approximate
02:21AM 39.3688 -12.8294 78° East  Level FlightAware Approximate
02:22AM 39.3966 -12.6549 78° East  Level FlightAware Approximate
02:23AM 39.4241 -12.4801 78° East  Level FlightAware Approximate
02:24AM 39.4513 -12.3053 79° East  Level FlightAware Approximate
02:25AM 39.4783 -12.1303 79° East  Level FlightAware Approximate
02:26AM 39.5050 -11.9552 79° East  Level FlightAware Approximate
02:27AM 39.5314 -11.7799 79° East  Level FlightAware Approximate
02:28AM 39.5576 -11.6045 79° East  Level FlightAware Approximate
02:29AM 39.5835 -11.4290 79° East  Level FlightAware Approximate
02:30AM 39.6092 -11.2534 79° East  Level FlightAware Approximate
02:31AM 39.6346 -11.0776 79° East  Level FlightAware Approximate
02:32AM 39.6597 -10.9017 79° East  Level FlightAware Approximate
02:33AM 39.6845 -10.7256 80° East  Level FlightAware Approximate
02:34AM 39.7091 -10.5495 80° East  Level FlightAware Approximate
02:35AM 39.7335 -10.3732 80° East  Level FlightAware Approximate
02:35AM 39.4890 -10.2820 80° East 502 578 34,400  Level FlightAware
02:36AM 39.7575 -10.1968 80° East  Level FlightAware Approximate
02:36AM 39.5070 -10.0940 83° East 34,000  Level FlightAware
02:36AM 39.5170 -9.9910 83° East 490 564 34,000  Level FlightAware
02:37AM 39.5290 -9.8590 83° East 491 565 34,000  Level FlightAware
02:38AM 39.5410 -9.7350 83° East 492 566 34,000  Level FlightAware
02:38AM 39.5520 -9.6120 83° East 494 568 34,000  Level FlightAware
02:39AM 39.5630 -9.4930 83° East 495 570 34,000  Level FlightAware
02:40AM 39.5750 -9.3620 83° East 495 570 34,000  Level FlightAware
02:40AM 39.5850 -9.2480 83° East 496 571 34,000  Level FlightAware
02:41AM 39.5970 -9.1140 83° East 497 572 34,000  Level FlightAware
02:42AM 39.6070 -8.9930 84° East 497 572 34,000  Level FlightAware
02:43AM 39.6190 -8.8580 83° East 498 573 34,000  Level FlightAware
02:43AM 39.6290 -8.7400 84° East 498 573 34,000  Level FlightAware
02:44AM 39.6390 -8.6200 84° East 499 574 34,000  Level FlightAware
02:45AM 39.6500 -8.4870 84° East 499 574 34,000  Level FlightAware
02:45AM 39.6600 -8.3670 84° East 501 577 34,000  Level FlightAware
02:46AM 39.6700 -8.2330 84° East 502 578 34,000  Level FlightAware
02:47AM 39.6800 -8.1150 84° East 503 579 34,000  Level FlightAware
02:47AM 39.6890 -7.9930 84° East 504 580 34,000  Level FlightAware
02:48AM 39.7000 -7.8580 84° East 503 579 34,000  Level FlightAware
02:49AM 39.7090 -7.7380 84° East 504 580 34,000  Level FlightAware
02:50AM 39.7190 -7.6040 84° East 505 581 34,000  Level FlightAware
02:50AM 39.7280 -7.4850 84° East 506 582 34,000  Level FlightAware
02:51AM 39.7360 -7.3620 85° East 508 585 34,000  Level FlightAware
02:52AM 39.7460 -7.2260 84° East 508 585 34,000  Level FlightAware
02:52AM 39.7550 -7.1030 85° East 509 586 34,000  Level FlightAware
02:53AM 39.7630 -6.9820 85° East 509 586 34,000  Level FlightAware
02:54AM 39.7720 -6.8480 85° East 509 586 34,000  Level FlightAware
02:54AM 39.7810 -6.7230 85° East 510 587 34,000  Level FlightAware
02:55AM 39.7890 -6.6030 85° East 509 586 34,000 -180 Level FlightAware
02:56AM 39.7980 -6.4630 85° East 508 585 33,800 -480 Descending FlightAware
02:57AM 39.8070 -6.3310 85° East 501 577 33,300 -480 Descending FlightAware
02:57AM 39.8150 -6.2360 84° East 499 574 33,200 -120 Descending FlightAware
02:58AM 39.8250 -6.1090 84° East 499 574 33,200  Level FlightAware
02:59AM 39.8330 -6.0070 84° East 499 574 33,200  Level FlightAware
02:59AM 39.8410 -5.9060 84° East 499 574 33,200  Level FlightAware
03:00AM 39.8500 -5.8040 83° East 499 574 33,200  Level FlightAware
03:01AM 39.8580 -5.7020 84° East 499 574 33,200  Level FlightAware
03:01AM 39.8660 -5.6000 84° East 499 574 33,200  Level FlightAware
03:02AM 39.8760 -5.4730 84° East 499 574 33,200  Level FlightAware
03:03AM 39.8840 -5.3720 84° East 499 574 33,200 -4,200 Level FlightAware
03:03AM 39.9060 -5.1790 81° East 25,700 -6,180 Descending FlightAware
03:04AM 39.9160 -5.0540 84° East 430 495 24,500 -1,560 Descending FlightAware
03:05AM 39.9240 -4.9510 84° East 425 489 23,500 -1,920 Descending FlightAware
03:06AM 39.9350 -4.8380 83° East 426 490 21,800 -2,220 Descending FlightAware
03:06AM 39.9540 -4.7380 76° East 422 486 20,400 -1,920 Descending FlightAware
03:07AM 39.9750 -4.6300 76° East 409 471 19,100 -1,800 Descending FlightAware
03:08AM 39.9930 -4.5350 76° East 397 457 17,900 -1,740 Descending FlightAware
03:08AM 40.0100 -4.4460 76° East 385 443 16,800 -1,800 Descending FlightAware
03:09AM 40.0290 -4.3430 76° East 374 430 15,400 -1,860 Descending FlightAware
03:10AM 40.0450 -4.2540 77° East 370 426 14,200 -1,800 Descending FlightAware
03:11AM 40.0630 -4.1600 76° East 364 419 12,900 -1,800 Descending FlightAware
03:11AM 40.0790 -4.0720 77° East 359 413 11,700 -1,740 Descending FlightAware
03:12AM 40.0940 -3.9900 77° East 351 404 10,600 -1,380 Descending FlightAware
03:13AM 40.1110 -3.9000 76° East 321 369 9,800 -1,140 Descending FlightAware
03:13AM 40.1190 -3.8540 77° East 304 350 9,300 -1,200 Descending FlightAware
03:13AM 40.1240 -3.8280 76° East 304 350 9,000 -1,080 Descending FlightAware
03:14AM 40.1330 -3.7760 77° East 287 330 8,500 -780 Descending FlightAware
03:14AM 40.1410 -3.7350 76° East 265 305 8,300 -780 Descending FlightAware
03:15AM 40.1490 -3.6890 77° East 253 291 7,800 -1,140 Descending FlightAware
03:15AM 40.1570 -3.6450 77° East 253 291 7,200 -1,320 Descending FlightAware
03:16AM 40.1630 -3.6060 79° East 254 292 6,600 -1,200 Descending FlightAware
03:16AM 40.1700 -3.5610 78° East 252 290 6,100 -1,020 Descending FlightAware
03:17AM 40.1770 -3.5250 76° East 246 283 5,700 -1,020 Descending FlightAware
03:17AM 40.1850 -3.4810 77° East 239 275 5,200 -900 Descending FlightAware
03:17AM 40.1920 -3.4480 74° East 231 266 4,900 -600 Descending FlightAware
03:18AM 40.2050 -3.4340 39° Northeast 231 266 4,800 -240 Descending FlightAware
03:18AM 40.2200 -3.4310 North 214 246 4,800  Level FlightAware
03:18AM 40.2490 -3.4310 360° North 209 241 4,800 -120 Level FlightAware
03:19AM 40.2730 -3.4330 356° North 209 241 4,700 -300 Descending FlightAware
03:19AM 40.2880 -3.4330 360° North 209 241 4,600 -480 Descending FlightAware
03:20AM 40.3100 -3.4350 356° North 208 239 4,400 -480 Descending FlightAware
03:20AM 40.3410 -3.4410 352° North 202 232 4,200 -540 Descending FlightAware
03:21AM 40.3670 -3.4590 332° Northwest 207 238 3,900 -600 Descending FlightAware
03:21AM 40.3850 -3.4750 326° Northwest 186 214 3,700 -900 Descending FlightAware
03:21AM 40.4080 -3.4980 323° Northwest 188 216 3,100 -1,140 Descending FlightAware
03:22AM 40.4270 -3.5180 321° Northwest 170 196 2,600 -1,020 Descending FlightAware
03:22AM 40.4420 -3.5330 323° Northwest 156 180 2,200 -900 Descending FlightAware
03:23AM 40.4590 -3.5500 323° Northwest 151 174 1,800 -720 Descending FlightAware
03:23AM 40.4670 -3.5580 323° Northwest 148 170 1,700 -420 Descending FlightAware